sensor_id;sensor_type;location;lat;lon;timestamp;P1;P2;P0
45700;PMS5003;36277;32.852;-116.998;2022-07-11T00:02:14;11.00;8.60;6.20
45700;PMS5003;36277;32.852;-116.998;2022-07-11T00:04:41;8.80;8.60;6.60
45700;PMS5003;36277;32.852;-116.998;2022-07-11T00:07:12;11.80;11.80;7.80
45700;PMS5003;36277;32.852;-116.998;2022-07-11T00:09:38;9.60;9.60;5.80
45700;PMS5003;36277;32.852;-116.998;2022-07-11T00:12:06;8.60;8.60;6.00
45700;PMS5003;36277;32.852;-116.998;2022-07-11T00:14:33;9.40;9.40;6.00
45700;PMS5003;36277;32.852;-116.998;2022-07-11T00:17:00;10.00;10.00;6.40
45700;PMS5003;36277;32.852;-116.998;2022-07-11T00:19:26;9.00;9.00;6.00
45700;PMS5003;36277;32.852;-116.998;2022-07-11T00:21:53;9.40;9.40;6.00
45700;PMS5003;36277;32.852;-116.998;2022-07-11T00:24:19;8.40;8.40;5.20
45700;PMS5003;36277;32.852;-116.998;2022-07-11T00:26:47;7.60;7.60;5.80
45700;PMS5003;36277;32.852;-116.998;2022-07-11T00:29:14;4.00;4.00;3.00
45700;PMS5003;36277;32.852;-116.998;2022-07-11T00:31:41;5.40;5.40;4.40
45700;PMS5003;36277;32.852;-116.998;2022-07-11T00:34:07;5.00;5.00;4.60
45700;PMS5003;36277;32.852;-116.998;2022-07-11T00:36:33;3.80;3.80;3.00
45700;PMS5003;36277;32.852;-116.998;2022-07-11T00:39:00;4.40;4.40;4.20
45700;PMS5003;36277;32.852;-116.998;2022-07-11T00:41:26;4.00;4.00;3.00
45700;PMS5003;36277;32.852;-116.998;2022-07-11T00:43:53;3.60;3.60;2.80
45700;PMS5003;36277;32.852;-116.998;2022-07-11T00:46:22;6.20;5.80;4.60
45700;PMS5003;36277;32.852;-116.998;2022-07-11T00:48:49;2.00;2.00;1.60
45700;PMS5003;36277;32.852;-116.998;2022-07-11T00:51:20;3.00;3.00;2.20
45700;PMS5003;36277;32.852;-116.998;2022-07-11T00:53:50;3.20;3.20;3.00
45700;PMS5003;36277;32.852;-116.998;2022-07-11T00:56:26;2.20;2.20;2.00
45700;PMS5003;36277;32.852;-116.998;2022-07-11T00:58:55;3.00;3.00;3.00
45700;PMS5003;36277;32.852;-116.998;2022-07-11T01:01:22;3.20;3.20;3.00
45700;PMS5003;36277;32.852;-116.998;2022-07-11T01:03:49;2.40;2.40;2.00
45700;PMS5003;36277;32.852;-116.998;2022-07-11T01:06:15;3.00;3.00;2.00
45700;PMS5003;36277;32.852;-116.998;2022-07-11T01:08:42;3.00;3.00;3.00
45700;PMS5003;36277;32.852;-116.998;2022-07-11T01:11:09;3.00;3.00;2.80
45700;PMS5003;36277;32.852;-116.998;2022-07-11T01:13:44;3.00;3.00;2.60
45700;PMS5003;36277;32.852;-116.998;2022-07-11T01:16:15;2.60;2.60;2.20
45700;PMS5003;36277;32.852;-116.998;2022-07-11T01:18:46;3.00;3.00;2.40
45700;PMS5003;36277;32.852;-116.998;2022-07-11T01:21:18;2.20;2.20;2.20
45700;PMS5003;36277;32.852;-116.998;2022-07-11T01:23:48;2.80;2.80;2.40
45700;PMS5003;36277;32.852;-116.998;2022-07-11T01:26:15;3.00;3.00;3.00
45700;PMS5003;36277;32.852;-116.998;2022-07-11T01:28:42;3.00;3.00;3.00
45700;PMS5003;36277;32.852;-116.998;2022-07-11T01:31:10;4.00;4.00;3.00
45700;PMS5003;36277;32.852;-116.998;2022-07-11T01:33:38;5.00;5.00;3.80
45700;PMS5003;36277;32.852;-116.998;2022-07-11T01:36:05;3.60;3.60;3.00
45700;PMS5003;36277;32.852;-116.998;2022-07-11T01:38:31;3.40;3.40;3.00
45700;PMS5003;36277;32.852;-116.998;2022-07-11T01:40:58;3.00;3.00;3.00
45700;PMS5003;36277;32.852;-116.998;2022-07-11T01:43:24;3.40;3.40;3.00
45700;PMS5003;36277;32.852;-116.998;2022-07-11T01:45:54;4.00;4.00;4.00
45700;PMS5003;36277;32.852;-116.998;2022-07-11T01:48:21;1.80;1.80;1.40
45700;PMS5003;36277;32.852;-116.998;2022-07-11T01:50:48;4.80;4.80;4.40
45700;PMS5003;36277;32.852;-116.998;2022-07-11T01:53:15;3.40;3.40;3.00
45700;PMS5003;36277;32.852;-116.998;2022-07-11T01:55:41;4.00;4.00;4.00
45700;PMS5003;36277;32.852;-116.998;2022-07-11T01:58:08;4.40;4.40;3.40
45700;PMS5003;36277;32.852;-116.998;2022-07-11T02:00:35;2.80;2.80;2.60
45700;PMS5003;36277;32.852;-116.998;2022-07-11T02:03:01;3.20;3.20;3.00
45700;PMS5003;36277;32.852;-116.998;2022-07-11T02:05:27;3.80;3.00;3.00
45700;PMS5003;36277;32.852;-116.998;2022-07-11T02:07:54;4.00;4.00;3.60
45700;PMS5003;36277;32.852;-116.998;2022-07-11T02:10:42;4.00;4.00;4.00
45700;PMS5003;36277;32.852;-116.998;2022-07-11T02:13:12;4.40;4.40;4.00
45700;PMS5003;36277;32.852;-116.998;2022-07-11T02:15:39;2.60;2.60;2.60
45700;PMS5003;36277;32.852;-116.998;2022-07-11T02:18:07;4.00;4.00;4.00
45700;PMS5003;36277;32.852;-116.998;2022-07-11T02:20:34;4.80;4.80;4.00
45700;PMS5003;36277;32.852;-116.998;2022-07-11T02:23:00;5.80;5.20;4.40
45700;PMS5003;36277;32.852;-116.998;2022-07-11T02:25:27;5.20;5.20;4.40
45700;PMS5003;36277;32.852;-116.998;2022-07-11T02:27:53;3.80;3.80;3.00
45700;PMS5003;36277;32.852;-116.998;2022-07-11T02:30:20;3.40;3.40;3.00
45700;PMS5003;36277;32.852;-116.998;2022-07-11T02:32:46;4.00;4.00;3.60
45700;PMS5003;36277;32.852;-116.998;2022-07-11T02:35:13;4.20;4.20;3.60
45700;PMS5003;36277;32.852;-116.998;2022-07-11T02:37:39;3.00;3.00;3.00
45700;PMS5003;36277;32.852;-116.998;2022-07-11T02:40:06;3.60;3.60;3.40
45700;PMS5003;36277;32.852;-116.998;2022-07-11T02:42:32;4.00;4.00;3.00
45700;PMS5003;36277;32.852;-116.998;2022-07-11T02:44:59;3.00;3.00;2.40
45700;PMS5003;36277;32.852;-116.998;2022-07-11T02:47:25;3.60;3.60;3.00
45700;PMS5003;36277;32.852;-116.998;2022-07-11T02:49:51;4.00;4.00;3.80
45700;PMS5003;36277;32.852;-116.998;2022-07-11T02:52:17;4.00;4.00;4.00
45700;PMS5003;36277;32.852;-116.998;2022-07-11T02:54:43;4.00;4.00;4.00
45700;PMS5003;36277;32.852;-116.998;2022-07-11T02:57:10;6.40;6.40;6.00
45700;PMS5003;36277;32.852;-116.998;2022-07-11T02:59:36;7.40;7.40;5.20
45700;PMS5003;36277;32.852;-116.998;2022-07-11T03:02:02;26.25;26.25;18.00
45700;PMS5003;36277;32.852;-116.998;2022-07-11T03:04:31;8.00;8.00;6.20
45700;PMS5003;36277;32.852;-116.998;2022-07-11T03:06:58;15.80;15.80;12.60
45700;PMS5003;36277;32.852;-116.998;2022-07-11T03:09:25;16.00;16.00;12.00
45700;PMS5003;36277;32.852;-116.998;2022-07-11T03:11:51;18.00;18.00;13.20
45700;PMS5003;36277;32.852;-116.998;2022-07-11T03:14:18;16.25;16.25;12.25
45700;PMS5003;36277;32.852;-116.998;2022-07-11T03:16:44;14.50;14.00;11.00
45700;PMS5003;36277;32.852;-116.998;2022-07-11T03:19:10;14.00;14.00;11.60
45700;PMS5003;36277;32.852;-116.998;2022-07-11T03:21:37;12.60;12.60;9.80
45700;PMS5003;36277;32.852;-116.998;2022-07-11T03:24:03;11.40;11.40;9.00
45700;PMS5003;36277;32.852;-116.998;2022-07-11T03:26:29;10.00;10.00;7.60
45700;PMS5003;36277;32.852;-116.998;2022-07-11T03:28:56;10.00;10.00;7.80
45700;PMS5003;36277;32.852;-116.998;2022-07-11T03:31:22;7.00;7.00;6.20
45700;PMS5003;36277;32.852;-116.998;2022-07-11T03:33:48;8.60;8.60;7.00
45700;PMS5003;36277;32.852;-116.998;2022-07-11T03:36:14;7.00;7.00;6.25
45700;PMS5003;36277;32.852;-116.998;2022-07-11T03:38:40;8.00;8.00;6.80
45700;PMS5003;36277;32.852;-116.998;2022-07-11T03:41:06;8.20;8.20;6.00
45700;PMS5003;36277;32.852;-116.998;2022-07-11T03:43:33;6.20;6.20;5.40
45700;PMS5003;36277;32.852;-116.998;2022-07-11T03:45:59;5.00;5.00;4.20
45700;PMS5003;36277;32.852;-116.998;2022-07-11T03:48:25;6.60;6.60;6.00
45700;PMS5003;36277;32.852;-116.998;2022-07-11T03:50:51;5.20;5.20;5.00
45700;PMS5003;36277;32.852;-116.998;2022-07-11T03:53:17;6.60;6.60;5.20
45700;PMS5003;36277;32.852;-116.998;2022-07-11T03:55:44;5.60;5.60;4.00
45700;PMS5003;36277;32.852;-116.998;2022-07-11T03:58:10;4.60;4.60;4.00
45700;PMS5003;36277;32.852;-116.998;2022-07-11T04:00:36;4.60;4.60;4.00
45700;PMS5003;36277;32.852;-116.998;2022-07-11T04:03:02;3.40;3.40;3.20
45700;PMS5003;36277;32.852;-116.998;2022-07-11T04:05:29;4.60;4.60;4.60
45700;PMS5003;36277;32.852;-116.998;2022-07-11T04:07:55;3.00;3.00;3.00
45700;PMS5003;36277;32.852;-116.998;2022-07-11T04:10:23;3.40;3.40;3.20
45700;PMS5003;36277;32.852;-116.998;2022-07-11T04:12:49;4.40;4.40;3.40
45700;PMS5003;36277;32.852;-116.998;2022-07-11T04:15:15;4.00;4.00;3.20
45700;PMS5003;36277;32.852;-116.998;2022-07-11T04:17:41;4.00;4.00;3.80
45700;PMS5003;36277;32.852;-116.998;2022-07-11T04:20:08;4.00;4.00;3.60
45700;PMS5003;36277;32.852;-116.998;2022-07-11T04:22:34;4.80;4.80;4.00
45700;PMS5003;36277;32.852;-116.998;2022-07-11T04:25:01;3.00;3.00;2.00
45700;PMS5003;36277;32.852;-116.998;2022-07-11T04:27:27;2.80;2.80;2.40
45700;PMS5003;36277;32.852;-116.998;2022-07-11T04:29:54;3.40;3.40;2.40
45700;PMS5003;36277;32.852;-116.998;2022-07-11T04:32:20;3.00;3.00;2.40
45700;PMS5003;36277;32.852;-116.998;2022-07-11T04:34:47;2.00;2.00;2.00
45700;PMS5003;36277;32.852;-116.998;2022-07-11T04:37:13;3.00;3.00;2.40
45700;PMS5003;36277;32.852;-116.998;2022-07-11T04:39:39;3.00;3.00;2.40
45700;PMS5003;36277;32.852;-116.998;2022-07-11T04:42:05;2.40;2.40;2.20
45700;PMS5003;36277;32.852;-116.998;2022-07-11T04:44:32;0.00;0.00;0.00
45700;PMS5003;36277;32.852;-116.998;2022-07-11T04:46:58;1.80;1.80;1.40
45700;PMS5003;36277;32.852;-116.998;2022-07-11T04:49:25;3.00;3.00;3.00
45700;PMS5003;36277;32.852;-116.998;2022-07-11T04:51:51;3.20;3.20;3.00
45700;PMS5003;36277;32.852;-116.998;2022-07-11T04:54:17;3.00;3.00;2.00
45700;PMS5003;36277;32.852;-116.998;2022-07-11T04:56:43;1.60;1.60;0.60
45700;PMS5003;36277;32.852;-116.998;2022-07-11T04:59:10;5.60;5.60;4.00
45700;PMS5003;36277;32.852;-116.998;2022-07-11T05:01:36;4.00;4.00;3.40
45700;PMS5003;36277;32.852;-116.998;2022-07-11T05:04:02;3.20;3.20;3.00
45700;PMS5003;36277;32.852;-116.998;2022-07-11T05:06:29;4.40;4.40;3.20
45700;PMS5003;36277;32.852;-116.998;2022-07-11T05:08:55;3.40;3.40;3.00
45700;PMS5003;36277;32.852;-116.998;2022-07-11T05:11:21;3.00;3.00;2.40
45700;PMS5003;36277;32.852;-116.998;2022-07-11T05:13:48;3.00;3.00;3.00
45700;PMS5003;36277;32.852;-116.998;2022-07-11T05:16:14;2.20;2.20;2.20
45700;PMS5003;36277;32.852;-116.998;2022-07-11T05:18:41;3.60;3.60;3.00
45700;PMS5003;36277;32.852;-116.998;2022-07-11T05:21:07;4.60;4.60;3.80
45700;PMS5003;36277;32.852;-116.998;2022-07-11T05:23:34;2.80;2.80;2.00
45700;PMS5003;36277;32.852;-116.998;2022-07-11T05:26:00;3.00;3.00;3.00
45700;PMS5003;36277;32.852;-116.998;2022-07-11T05:28:29;3.00;3.00;3.00
45700;PMS5003;36277;32.852;-116.998;2022-07-11T05:30:55;4.00;4.00;3.00
45700;PMS5003;36277;32.852;-116.998;2022-07-11T05:33:22;4.00;4.00;3.00
45700;PMS5003;36277;32.852;-116.998;2022-07-11T05:35:48;3.00;3.00;2.00
45700;PMS5003;36277;32.852;-116.998;2022-07-11T05:38:14;3.60;3.60;3.00
45700;PMS5003;36277;32.852;-116.998;2022-07-11T05:40:41;4.00;3.20;3.00
45700;PMS5003;36277;32.852;-116.998;2022-07-11T05:43:07;2.00;2.00;2.00
45700;PMS5003;36277;32.852;-116.998;2022-07-11T05:45:33;4.00;4.00;3.60
45700;PMS5003;36277;32.852;-116.998;2022-07-11T05:47:59;2.00;2.00;1.60
45700;PMS5003;36277;32.852;-116.998;2022-07-11T05:50:25;3.00;3.00;2.00
45700;PMS5003;36277;32.852;-116.998;2022-07-11T05:52:52;2.60;2.60;1.80
45700;PMS5003;36277;32.852;-116.998;2022-07-11T05:55:18;3.00;3.00;2.80
45700;PMS5003;36277;32.852;-116.998;2022-07-11T05:57:44;2.00;2.00;2.00
45700;PMS5003;36277;32.852;-116.998;2022-07-11T06:00:11;3.80;3.80;3.00
45700;PMS5003;36277;32.852;-116.998;2022-07-11T06:02:38;4.00;3.60;3.20
45700;PMS5003;36277;32.852;-116.998;2022-07-11T06:05:04;3.00;3.00;2.20
45700;PMS5003;36277;32.852;-116.998;2022-07-11T06:07:30;5.80;5.00;4.00
45700;PMS5003;36277;32.852;-116.998;2022-07-11T06:10:15;8.80;8.80;5.00
45700;PMS5003;36277;32.852;-116.998;2022-07-11T06:12:42;18.20;17.80;9.00
45700;PMS5003;36277;32.852;-116.998;2022-07-11T06:15:09;19.60;19.00;9.60
45700;PMS5003;36277;32.852;-116.998;2022-07-11T06:17:36;18.80;18.20;9.20
45700;PMS5003;36277;32.852;-116.998;2022-07-11T06:20:02;16.80;16.80;9.20
45700;PMS5003;36277;32.852;-116.998;2022-07-11T06:22:29;16.80;16.80;9.40
45700;PMS5003;36277;32.852;-116.998;2022-07-11T06:24:55;18.00;18.00;10.50
45700;PMS5003;36277;32.852;-116.998;2022-07-11T06:27:21;18.40;17.80;9.20
45700;PMS5003;36277;32.852;-116.998;2022-07-11T06:29:48;18.00;16.50;9.00
45700;PMS5003;36277;32.852;-116.998;2022-07-11T06:32:14;17.20;17.20;10.40
45700;PMS5003;36277;32.852;-116.998;2022-07-11T06:34:40;18.60;17.40;10.00
45700;PMS5003;36277;32.852;-116.998;2022-07-11T06:37:07;19.20;19.00;10.20
45700;PMS5003;36277;32.852;-116.998;2022-07-11T06:39:33;19.60;19.40;10.80
45700;PMS5003;36277;32.852;-116.998;2022-07-11T06:41:59;21.00;20.80;13.40
45700;PMS5003;36277;32.852;-116.998;2022-07-11T06:44:26;26.50;24.00;14.25
45700;PMS5003;36277;32.852;-116.998;2022-07-11T06:46:52;22.75;22.50;11.00
45700;PMS5003;36277;32.852;-116.998;2022-07-11T06:49:18;21.25;19.00;8.75
45700;PMS5003;36277;32.852;-116.998;2022-07-11T06:51:44;18.50;17.00;10.50
45700;PMS5003;36277;32.852;-116.998;2022-07-11T06:54:10;21.50;19.50;10.50
45700;PMS5003;36277;32.852;-116.998;2022-07-11T06:56:37;23.75;22.25;11.00
45700;PMS5003;36277;32.852;-116.998;2022-07-11T06:59:03;22.75;22.25;13.00
45700;PMS5003;36277;32.852;-116.998;2022-07-11T07:01:29;25.00;25.00;12.75
45700;PMS5003;36277;32.852;-116.998;2022-07-11T07:03:55;21.75;21.75;11.50
45700;PMS5003;36277;32.852;-116.998;2022-07-11T07:06:21;24.75;22.75;11.50
45700;PMS5003;36277;32.852;-116.998;2022-07-11T07:08:48;15.40;14.60;6.00
45700;PMS5003;36277;32.852;-116.998;2022-07-11T07:11:14;17.80;17.80;9.00
45700;PMS5003;36277;32.852;-116.998;2022-07-11T07:13:40;23.25;22.50;11.00
45700;PMS5003;36277;32.852;-116.998;2022-07-11T07:16:06;17.25;17.25;9.00
45700;PMS5003;36277;32.852;-116.998;2022-07-11T07:18:33;12.80;12.20;8.00
45700;PMS5003;36277;32.852;-116.998;2022-07-11T07:21:00;15.60;15.00;8.00
45700;PMS5003;36277;32.852;-116.998;2022-07-11T07:23:26;19.00;19.00;10.80
45700;PMS5003;36277;32.852;-116.998;2022-07-11T07:25:52;19.60;19.60;10.00
45700;PMS5003;36277;32.852;-116.998;2022-07-11T07:28:18;18.00;18.00;11.80
45700;PMS5003;36277;32.852;-116.998;2022-07-11T07:30:44;15.00;15.00;7.40
45700;PMS5003;36277;32.852;-116.998;2022-07-11T07:33:12;20.80;20.80;12.00
45700;PMS5003;36277;32.852;-116.998;2022-07-11T07:35:38;16.60;16.60;9.40
45700;PMS5003;36277;32.852;-116.998;2022-07-11T07:38:05;17.40;16.60;8.40
45700;PMS5003;36277;32.852;-116.998;2022-07-11T07:40:31;15.20;15.20;7.60
45700;PMS5003;36277;32.852;-116.998;2022-07-11T07:42:57;12.80;12.60;4.80
45700;PMS5003;36277;32.852;-116.998;2022-07-11T07:45:23;12.00;12.00;8.00
45700;PMS5003;36277;32.852;-116.998;2022-07-11T07:47:50;10.40;10.40;5.20
45700;PMS5003;36277;32.852;-116.998;2022-07-11T07:50:16;13.60;13.40;8.20
45700;PMS5003;36277;32.852;-116.998;2022-07-11T07:52:42;15.40;15.00;8.40
45700;PMS5003;36277;32.852;-116.998;2022-07-11T07:55:08;11.60;11.40;6.80
45700;PMS5003;36277;32.852;-116.998;2022-07-11T07:57:35;12.60;11.80;6.20
45700;PMS5003;36277;32.852;-116.998;2022-07-11T08:00:02;12.00;12.00;8.00
45700;PMS5003;36277;32.852;-116.998;2022-07-11T08:02:47;12.80;12.80;8.00
45700;PMS5003;36277;32.852;-116.998;2022-07-11T08:05:16;11.60;11.60;7.60
45700;PMS5003;36277;32.852;-116.998;2022-07-11T08:07:43;7.20;7.20;4.60
45700;PMS5003;36277;32.852;-116.998;2022-07-11T08:10:10;12.00;11.60;7.80
45700;PMS5003;36277;32.852;-116.998;2022-07-11T08:12:36;11.20;11.20;7.00
45700;PMS5003;36277;32.852;-116.998;2022-07-11T08:15:03;9.60;9.60;7.40
45700;PMS5003;36277;32.852;-116.998;2022-07-11T08:17:29;11.40;11.40;8.00
45700;PMS5003;36277;32.852;-116.998;2022-07-11T08:19:55;11.40;11.40;7.60
45700;PMS5003;36277;32.852;-116.998;2022-07-11T08:22:22;11.60;11.20;5.20
45700;PMS5003;36277;32.852;-116.998;2022-07-11T08:24:48;10.60;10.60;7.20
45700;PMS5003;36277;32.852;-116.998;2022-07-11T08:27:15;6.80;6.80;5.80
45700;PMS5003;36277;32.852;-116.998;2022-07-11T08:29:41;13.60;13.60;8.00
45700;PMS5003;36277;32.852;-116.998;2022-07-11T08:32:07;12.00;12.00;8.80
45700;PMS5003;36277;32.852;-116.998;2022-07-11T08:34:33;10.60;10.60;7.00
45700;PMS5003;36277;32.852;-116.998;2022-07-11T08:36:59;10.40;10.40;6.60
45700;PMS5003;36277;32.852;-116.998;2022-07-11T08:39:26;10.00;10.00;7.00
45700;PMS5003;36277;32.852;-116.998;2022-07-11T08:41:52;9.80;9.80;6.00
45700;PMS5003;36277;32.852;-116.998;2022-07-11T08:44:20;8.80;8.80;4.00
45700;PMS5003;36277;32.852;-116.998;2022-07-11T08:46:46;12.60;12.00;6.80
45700;PMS5003;36277;32.852;-116.998;2022-07-11T08:49:13;8.80;8.80;5.00
45700;PMS5003;36277;32.852;-116.998;2022-07-11T08:51:41;10.00;10.00;6.40
45700;PMS5003;36277;32.852;-116.998;2022-07-11T08:54:07;7.60;7.60;5.00
45700;PMS5003;36277;32.852;-116.998;2022-07-11T08:56:33;7.40;7.40;4.00
45700;PMS5003;36277;32.852;-116.998;2022-07-11T08:59:02;8.40;8.40;5.00
45700;PMS5003;36277;32.852;-116.998;2022-07-11T09:01:33;8.00;8.00;5.40
45700;PMS5003;36277;32.852;-116.998;2022-07-11T09:04:00;7.80;7.80;5.00
45700;PMS5003;36277;32.852;-116.998;2022-07-11T09:06:27;8.20;8.20;5.00
45700;PMS5003;36277;32.852;-116.998;2022-07-11T09:09:00;8.00;7.60;4.80
45700;PMS5003;36277;32.852;-116.998;2022-07-11T09:11:27;7.00;7.00;5.40
45700;PMS5003;36277;32.852;-116.998;2022-07-11T09:13:54;9.80;9.80;6.00
45700;PMS5003;36277;32.852;-116.998;2022-07-11T09:16:20;4.40;4.40;3.00
45700;PMS5003;36277;32.852;-116.998;2022-07-11T09:18:46;7.20;7.20;5.00
45700;PMS5003;36277;32.852;-116.998;2022-07-11T09:21:13;8.00;8.00;5.40
45700;PMS5003;36277;32.852;-116.998;2022-07-11T09:24:00;7.00;7.00;4.00
45700;PMS5003;36277;32.852;-116.998;2022-07-11T09:26:47;3.40;3.00;1.60
45700;PMS5003;36277;32.852;-116.998;2022-07-11T09:29:19;8.20;8.20;5.00
45700;PMS5003;36277;32.852;-116.998;2022-07-11T09:31:49;5.20;5.20;3.60
45700;PMS5003;36277;32.852;-116.998;2022-07-11T09:34:17;7.40;7.40;5.60
45700;PMS5003;36277;32.852;-116.998;2022-07-11T09:36:45;6.20;6.00;4.00
45700;PMS5003;36277;32.852;-116.998;2022-07-11T09:39:15;6.40;6.40;5.00
45700;PMS5003;36277;32.852;-116.998;2022-07-11T09:41:46;5.20;5.20;3.40
45700;PMS5003;36277;32.852;-116.998;2022-07-11T09:44:21;5.40;5.40;3.60
45700;PMS5003;36277;32.852;-116.998;2022-07-11T09:46:52;4.40;4.40;3.00
45700;PMS5003;36277;32.852;-116.998;2022-07-11T09:49:35;6.00;6.00;4.60
45700;PMS5003;36277;32.852;-116.998;2022-07-11T09:52:12;6.40;6.40;5.00
45700;PMS5003;36277;32.852;-116.998;2022-07-11T09:54:56;5.00;5.00;4.00
45700;PMS5003;36277;32.852;-116.998;2022-07-11T09:57:44;5.00;5.00;3.00
45700;PMS5003;36277;32.852;-116.998;2022-07-11T10:00:10;5.00;5.00;4.00
45700;PMS5003;36277;32.852;-116.998;2022-07-11T10:02:39;5.00;5.00;4.40
45700;PMS5003;36277;32.852;-116.998;2022-07-11T10:05:06;5.00;5.00;3.40
45700;PMS5003;36277;32.852;-116.998;2022-07-11T10:07:33;4.00;4.00;3.00
45700;PMS5003;36277;32.852;-116.998;2022-07-11T10:09:59;6.00;6.00;4.00
45700;PMS5003;36277;32.852;-116.998;2022-07-11T10:12:29;4.60;4.60;3.00
45700;PMS5003;36277;32.852;-116.998;2022-07-11T10:15:07;5.40;5.40;3.80
45700;PMS5003;36277;32.852;-116.998;2022-07-11T10:30:57;3.20;3.20;2.80
45700;PMS5003;36277;32.852;-116.998;2022-07-11T10:33:26;4.00;4.00;3.00
45700;PMS5003;36277;32.852;-116.998;2022-07-11T10:35:54;5.00;5.00;4.00
45700;PMS5003;36277;32.852;-116.998;2022-07-11T10:38:22;4.40;4.40;4.00
45700;PMS5003;36277;32.852;-116.998;2022-07-11T10:40:56;5.20;5.20;4.20
45700;PMS5003;36277;32.852;-116.998;2022-07-11T10:45:53;4.00;4.00;3.00
45700;PMS5003;36277;32.852;-116.998;2022-07-11T10:48:20;4.60;4.60;3.60
45700;PMS5003;36277;32.852;-116.998;2022-07-11T10:50:48;3.00;3.00;2.20
45700;PMS5003;36277;32.852;-116.998;2022-07-11T10:53:31;3.00;3.00;1.40
45700;PMS5003;36277;32.852;-116.998;2022-07-11T10:56:24;3.40;3.40;2.60
45700;PMS5003;36277;32.852;-116.998;2022-07-11T10:59:15;4.00;4.00;3.20
45700;PMS5003;36277;32.852;-116.998;2022-07-11T11:07:29;3.20;3.20;3.00
45700;PMS5003;36277;32.852;-116.998;2022-07-11T11:09:56;5.00;5.00;4.00
45700;PMS5003;36277;32.852;-116.998;2022-07-11T11:26:05;4.00;4.00;3.00
45700;PMS5003;36277;32.852;-116.998;2022-07-11T11:28:38;4.00;4.00;3.00
45700;PMS5003;36277;32.852;-116.998;2022-07-11T11:31:19;5.60;5.60;4.00
45700;PMS5003;36277;32.852;-116.998;2022-07-11T11:33:46;4.00;4.00;3.00
45700;PMS5003;36277;32.852;-116.998;2022-07-11T11:36:15;4.00;4.00;3.00
45700;PMS5003;36277;32.852;-116.998;2022-07-11T11:38:44;4.00;4.00;3.00
45700;PMS5003;36277;32.852;-116.998;2022-07-11T11:41:21;5.20;5.20;3.00
45700;PMS5003;36277;32.852;-116.998;2022-07-11T11:43:55;2.80;2.80;2.00
45700;PMS5003;36277;32.852;-116.998;2022-07-11T11:46:23;3.80;3.80;3.00
45700;PMS5003;36277;32.852;-116.998;2022-07-11T11:48:56;4.80;4.80;3.00
45700;PMS5003;36277;32.852;-116.998;2022-07-11T11:51:24;3.20;3.00;2.20
45700;PMS5003;36277;32.852;-116.998;2022-07-11T11:53:54;3.00;3.00;2.60
45700;PMS5003;36277;32.852;-116.998;2022-07-11T11:56:30;3.40;3.40;2.60
45700;PMS5003;36277;32.852;-116.998;2022-07-11T11:59:07;3.20;3.20;3.00
45700;PMS5003;36277;32.852;-116.998;2022-07-11T12:01:39;3.00;3.00;2.20
45700;PMS5003;36277;32.852;-116.998;2022-07-11T12:04:08;5.00;4.60;3.80
45700;PMS5003;36277;32.852;-116.998;2022-07-11T12:06:41;3.60;3.60;2.80
45700;PMS5003;36277;32.852;-116.998;2022-07-11T12:09:11;6.40;6.40;4.20
45700;PMS5003;36277;32.852;-116.998;2022-07-11T12:11:45;7.00;6.00;4.00
45700;PMS5003;36277;32.852;-116.998;2022-07-11T12:14:14;7.20;7.20;5.00
45700;PMS5003;36277;32.852;-116.998;2022-07-11T12:16:42;7.00;7.00;5.20
45700;PMS5003;36277;32.852;-116.998;2022-07-11T12:19:15;11.80;11.80;7.00
45700;PMS5003;36277;32.852;-116.998;2022-07-11T12:21:49;10.00;10.00;6.40
45700;PMS5003;36277;32.852;-116.998;2022-07-11T12:24:20;12.00;12.00;7.00
45700;PMS5003;36277;32.852;-116.998;2022-07-11T12:26:48;9.40;9.40;5.80
45700;PMS5003;36277;32.852;-116.998;2022-07-11T12:29:19;11.60;11.60;7.60
45700;PMS5003;36277;32.852;-116.998;2022-07-11T12:31:50;10.80;10.80;6.80
45700;PMS5003;36277;32.852;-116.998;2022-07-11T12:36:48;8.60;8.60;5.20
45700;PMS5003;36277;32.852;-116.998;2022-07-11T12:39:26;14.00;14.00;7.40
45700;PMS5003;36277;32.852;-116.998;2022-07-11T12:41:54;17.60;14.40;8.20
45700;PMS5003;36277;32.852;-116.998;2022-07-11T12:44:22;11.80;11.80;7.00
45700;PMS5003;36277;32.852;-116.998;2022-07-11T12:47:08;14.00;14.00;8.00
45700;PMS5003;36277;32.852;-116.998;2022-07-11T12:49:34;9.00;9.00;6.40
45700;PMS5003;36277;32.852;-116.998;2022-07-11T12:52:00;8.80;8.80;7.00
45700;PMS5003;36277;32.852;-116.998;2022-07-11T12:54:30;10.80;10.80;6.00
45700;PMS5003;36277;32.852;-116.998;2022-07-11T12:56:59;10.80;10.80;6.80
45700;PMS5003;36277;32.852;-116.998;2022-07-11T12:59:30;11.20;11.20;6.80
45700;PMS5003;36277;32.852;-116.998;2022-07-11T13:02:01;12.80;12.80;6.40
45700;PMS5003;36277;32.852;-116.998;2022-07-11T13:04:33;10.60;9.80;6.40
45700;PMS5003;36277;32.852;-116.998;2022-07-11T13:10:10;9.40;9.40;6.00
45700;PMS5003;36277;32.852;-116.998;2022-07-11T13:12:44;7.00;7.00;2.00
45700;PMS5003;36277;32.852;-116.998;2022-07-11T13:15:12;10.60;9.40;6.60
45700;PMS5003;36277;32.852;-116.998;2022-07-11T13:17:43;11.40;11.40;7.00
45700;PMS5003;36277;32.852;-116.998;2022-07-11T13:20:14;7.00;7.00;5.00
45700;PMS5003;36277;32.852;-116.998;2022-07-11T13:22:46;11.00;11.00;6.00
45700;PMS5003;36277;32.852;-116.998;2022-07-11T13:25:14;6.80;6.80;4.20
45700;PMS5003;36277;32.852;-116.998;2022-07-11T13:27:42;6.40;6.40;3.00
45700;PMS5003;36277;32.852;-116.998;2022-07-11T13:30:11;9.00;9.00;6.00
45700;PMS5003;36277;32.852;-116.998;2022-07-11T13:32:45;7.40;7.40;5.00
45700;PMS5003;36277;32.852;-116.998;2022-07-11T13:35:12;4.40;3.20;0.00
45700;PMS5003;36277;32.852;-116.998;2022-07-11T13:37:40;10.20;10.20;5.80
45700;PMS5003;36277;32.852;-116.998;2022-07-11T13:40:07;7.80;7.80;5.00
45700;PMS5003;36277;32.852;-116.998;2022-07-11T13:42:35;7.20;7.20;3.60
45700;PMS5003;36277;32.852;-116.998;2022-07-11T13:45:02;8.80;8.80;6.00
45700;PMS5003;36277;32.852;-116.998;2022-07-11T13:47:30;8.40;8.40;5.40
45700;PMS5003;36277;32.852;-116.998;2022-07-11T13:49:57;7.40;7.40;5.00
45700;PMS5003;36277;32.852;-116.998;2022-07-11T13:52:24;5.60;5.60;3.60
45700;PMS5003;36277;32.852;-116.998;2022-07-11T13:54:50;9.60;9.60;6.00
45700;PMS5003;36277;32.852;-116.998;2022-07-11T13:57:17;9.80;7.80;5.80
45700;PMS5003;36277;32.852;-116.998;2022-07-11T13:59:45;8.20;8.00;5.60
45700;PMS5003;36277;32.852;-116.998;2022-07-11T14:02:15;8.40;8.40;6.00
45700;PMS5003;36277;32.852;-116.998;2022-07-11T14:04:42;9.00;9.00;5.00
45700;PMS5003;36277;32.852;-116.998;2022-07-11T14:07:09;8.80;8.60;6.00
45700;PMS5003;36277;32.852;-116.998;2022-07-11T14:09:39;10.60;10.60;6.00
45700;PMS5003;36277;32.852;-116.998;2022-07-11T14:12:06;7.80;7.60;4.80
45700;PMS5003;36277;32.852;-116.998;2022-07-11T14:14:33;8.00;8.00;5.20
45700;PMS5003;36277;32.852;-116.998;2022-07-11T14:17:00;6.80;6.80;5.00
45700;PMS5003;36277;32.852;-116.998;2022-07-11T14:19:28;6.00;6.00;4.40
45700;PMS5003;36277;32.852;-116.998;2022-07-11T14:21:56;8.60;8.60;6.00
45700;PMS5003;36277;32.852;-116.998;2022-07-11T14:24:23;7.80;7.80;4.80
45700;PMS5003;36277;32.852;-116.998;2022-07-11T14:26:49;6.00;6.00;3.20